sensor_id;sensor_type;location;lat;lon;timestamp;P1;durP1;ratioP1;P2;durP2;ratioP2
8885;SDS011;4479;51.162;13.906;2023-03-20T00:05:01;4.00;;;3.37;;
8885;SDS011;4479;51.162;13.906;2023-03-20T00:15:18;3.83;;;3.47;;
8885;SDS011;4479;51.162;13.906;2023-03-20T00:25:25;4.43;;;3.63;;
8885;SDS011;4479;51.162;13.906;2023-03-20T00:45:33;4.30;;;3.77;;
8885;SDS011;4479;51.162;13.906;2023-03-20T00:55:36;3.87;;;3.27;;
8885;SDS011;4479;51.162;13.906;2023-03-20T01:05:41;4.00;;;3.60;;
8885;SDS011;4479;51.162;13.906;2023-03-20T01:15:44;4.83;;;3.47;;
8885;SDS011;4479;51.162;13.906;2023-03-20T01:25:48;4.00;;;3.30;;
8885;SDS011;4479;51.162;13.906;2023-03-20T01:35:51;5.13;;;3.47;;
8885;SDS011;4479;51.162;13.906;2023-03-20T01:45:56;4.13;;;3.37;;
8885;SDS011;4479;51.162;13.906;2023-03-20T01:56:04;3.33;;;3.03;;
8885;SDS011;4479;51.162;13.906;2023-03-20T02:06:16;3.63;;;3.20;;
8885;SDS011;4479;51.162;13.906;2023-03-20T02:16:33;4.03;;;3.17;;
8885;SDS011;4479;51.162;13.906;2023-03-20T02:26:52;4.10;;;3.07;;
8885;SDS011;4479;51.162;13.906;2023-03-20T02:47:39;3.27;;;2.63;;
8885;SDS011;4479;51.162;13.906;2023-03-20T02:57:54;3.10;;;2.80;;
8885;SDS011;4479;51.162;13.906;2023-03-20T03:08:00;2.90;;;2.60;;
8885;SDS011;4479;51.162;13.906;2023-03-20T03:18:10;2.83;;;2.60;;
8885;SDS011;4479;51.162;13.906;2023-03-20T03:28:18;3.30;;;2.67;;
8885;SDS011;4479;51.162;13.906;2023-03-20T03:38:27;3.30;;;2.70;;
8885;SDS011;4479;51.162;13.906;2023-03-20T03:48:34;4.77;;;2.83;;
8885;SDS011;4479;51.162;13.906;2023-03-20T03:58:40;4.87;;;2.90;;
8885;SDS011;4479;51.162;13.906;2023-03-20T04:08:44;4.37;;;2.73;;
8885;SDS011;4479;51.162;13.906;2023-03-20T04:18:48;3.07;;;2.73;;
8885;SDS011;4479;51.162;13.906;2023-03-20T04:28:51;2.83;;;2.47;;
8885;SDS011;4479;51.162;13.906;2023-03-20T04:39:24;3.03;;;2.60;;
8885;SDS011;4479;51.162;13.906;2023-03-20T04:49:26;2.57;;;2.37;;
8885;SDS011;4479;51.162;13.906;2023-03-20T04:59:31;2.87;;;2.57;;
8885;SDS011;4479;51.162;13.906;2023-03-20T05:09:33;3.10;;;2.53;;
8885;SDS011;4479;51.162;13.906;2023-03-20T05:19:39;2.83;;;2.60;;
8885;SDS011;4479;51.162;13.906;2023-03-20T05:30:05;3.20;;;2.90;;
8885;SDS011;4479;51.162;13.906;2023-03-20T05:40:23;2.83;;;2.57;;
8885;SDS011;4479;51.162;13.906;2023-03-20T05:50:52;3.57;;;2.73;;
8885;SDS011;4479;51.162;13.906;2023-03-20T06:01:12;2.60;;;2.40;;
8885;SDS011;4479;51.162;13.906;2023-03-20T06:11:39;2.80;;;2.43;;
8885;SDS011;4479;51.162;13.906;2023-03-20T06:21:43;2.33;;;2.03;;
8885;SDS011;4479;51.162;13.906;2023-03-20T06:31:49;2.60;;;2.23;;
8885;SDS011;4479;51.162;13.906;2023-03-20T06:42:01;2.87;;;2.57;;
8885;SDS011;4479;51.162;13.906;2023-03-20T06:52:03;3.30;;;2.63;;
8885;SDS011;4479;51.162;13.906;2023-03-20T07:02:09;3.20;;;2.40;;
8885;SDS011;4479;51.162;13.906;2023-03-20T07:12:13;3.50;;;2.43;;
8885;SDS011;4479;51.162;13.906;2023-03-20T07:22:21;3.07;;;2.77;;
8885;SDS011;4479;51.162;13.906;2023-03-20T07:32:28;2.73;;;2.50;;
8885;SDS011;4479;51.162;13.906;2023-03-20T07:42:32;3.30;;;2.83;;
8885;SDS011;4479;51.162;13.906;2023-03-20T07:52:45;3.60;;;3.10;;
8885;SDS011;4479;51.162;13.906;2023-03-20T08:02:49;3.30;;;3.00;;
8885;SDS011;4479;51.162;13.906;2023-03-20T08:12:51;3.50;;;3.20;;
8885;SDS011;4479;51.162;13.906;2023-03-20T08:22:55;4.53;;;3.23;;
8885;SDS011;4479;51.162;13.906;2023-03-20T08:32:57;4.00;;;3.67;;
8885;SDS011;4479;51.162;13.906;2023-03-20T08:43:01;4.50;;;4.10;;
8885;SDS011;4479;51.162;13.906;2023-03-20T08:53:04;5.37;;;4.83;;
8885;SDS011;4479;51.162;13.906;2023-03-20T09:03:11;5.77;;;4.87;;
8885;SDS011;4479;51.162;13.906;2023-03-20T09:13:15;5.07;;;4.43;;
8885;SDS011;4479;51.162;13.906;2023-03-20T09:23:21;7.37;;;5.90;;
8885;SDS011;4479;51.162;13.906;2023-03-20T09:33:24;6.73;;;5.93;;
8885;SDS011;4479;51.162;13.906;2023-03-20T09:43:40;7.30;;;6.23;;
8885;SDS011;4479;51.162;13.906;2023-03-20T09:53:46;9.83;;;7.87;;
8885;SDS011;4479;51.162;13.906;2023-03-20T10:03:54;14.67;;;9.83;;
8885;SDS011;4479;51.162;13.906;2023-03-20T10:14:02;10.87;;;8.93;;
8885;SDS011;4479;51.162;13.906;2023-03-20T10:24:16;14.27;;;11.67;;
8885;SDS011;4479;51.162;13.906;2023-03-20T10:34:25;12.70;;;10.67;;
8885;SDS011;4479;51.162;13.906;2023-03-20T10:44:35;15.27;;;11.90;;
8885;SDS011;4479;51.162;13.906;2023-03-20T10:54:39;17.03;;;12.93;;
8885;SDS011;4479;51.162;13.906;2023-03-20T11:04:44;15.50;;;12.17;;
8885;SDS011;4479;51.162;13.906;2023-03-20T11:14:46;15.47;;;11.80;;
8885;SDS011;4479;51.162;13.906;2023-03-20T11:24:51;13.00;;;10.37;;
8885;SDS011;4479;51.162;13.906;2023-03-20T11:35:09;11.67;;;9.13;;
8885;SDS011;4479;51.162;13.906;2023-03-20T11:45:21;12.63;;;9.77;;
8885;SDS011;4479;51.162;13.906;2023-03-20T11:55:25;12.47;;;9.40;;
8885;SDS011;4479;51.162;13.906;2023-03-20T12:05:31;11.03;;;9.27;;
8885;SDS011;4479;51.162;13.906;2023-03-20T12:15:36;16.80;;;12.93;;
8885;SDS011;4479;51.162;13.906;2023-03-20T12:25:44;14.47;;;11.43;;
8885;SDS011;4479;51.162;13.906;2023-03-20T12:35:50;16.07;;;11.83;;
8885;SDS011;4479;51.162;13.906;2023-03-20T12:45:55;20.07;;;14.23;;
8885;SDS011;4479;51.162;13.906;2023-03-20T12:56:06;24.30;;;17.40;;
8885;SDS011;4479;51.162;13.906;2023-03-20T13:06:18;24.93;;;16.63;;
8885;SDS011;4479;51.162;13.906;2023-03-20T13:16:26;20.87;;;13.37;;
8885;SDS011;4479;51.162;13.906;2023-03-20T13:26:36;17.30;;;13.40;;
8885;SDS011;4479;51.162;13.906;2023-03-20T13:36:43;17.13;;;12.47;;
8885;SDS011;4479;51.162;13.906;2023-03-20T13:46:54;14.57;;;11.20;;
8885;SDS011;4479;51.162;13.906;2023-03-20T13:56:59;18.87;;;13.57;;
8885;SDS011;4479;51.162;13.906;2023-03-20T14:17:30;16.60;;;12.20;;
8885;SDS011;4479;51.162;13.906;2023-03-20T14:27:35;15.97;;;11.93;;
8885;SDS011;4479;51.162;13.906;2023-03-20T14:48:24;16.77;;;11.50;;
8885;SDS011;4479;51.162;13.906;2023-03-20T15:08:55;19.00;;;13.10;;
8885;SDS011;4479;51.162;13.906;2023-03-20T15:18:59;19.67;;;13.20;;
8885;SDS011;4479;51.162;13.906;2023-03-20T15:29:04;17.30;;;11.57;;
8885;SDS011;4479;51.162;13.906;2023-03-20T15:39:12;14.03;;;10.63;;
8885;SDS011;4479;51.162;13.906;2023-03-20T15:49:17;18.53;;;12.83;;
8885;SDS011;4479;51.162;13.906;2023-03-20T15:59:20;21.07;;;14.53;;
8885;SDS011;4479;51.162;13.906;2023-03-20T16:09:26;18.77;;;13.23;;
8885;SDS011;4479;51.162;13.906;2023-03-20T16:19:28;18.40;;;13.27;;
8885;SDS011;4479;51.162;13.906;2023-03-20T16:29:32;22.30;;;15.00;;
8885;SDS011;4479;51.162;13.906;2023-03-20T16:39:35;19.10;;;13.00;;
8885;SDS011;4479;51.162;13.906;2023-03-20T16:49:48;19.07;;;12.43;;
8885;SDS011;4479;51.162;13.906;2023-03-20T16:59:52;19.40;;;13.07;;
8885;SDS011;4479;51.162;13.906;2023-03-20T17:10:11;18.93;;;12.47;;
8885;SDS011;4479;51.162;13.906;2023-03-20T17:20:24;18.93;;;13.00;;
8885;SDS011;4479;51.162;13.906;2023-03-20T17:30:32;20.07;;;13.57;;
8885;SDS011;4479;51.162;13.906;2023-03-20T17:40:40;20.20;;;14.17;;
8885;SDS011;4479;51.162;13.906;2023-03-20T17:50:45;19.40;;;12.47;;
8885;SDS011;4479;51.162;13.906;2023-03-20T18:00:49;16.47;;;10.70;;
8885;SDS011;4479;51.162;13.906;2023-03-20T18:10:54;16.93;;;12.30;;
8885;SDS011;4479;51.162;13.906;2023-03-20T18:20:56;11.70;;;8.20;;
8885;SDS011;4479;51.162;13.906;2023-03-20T18:31:00;11.17;;;8.13;;
8885;SDS011;4479;51.162;13.906;2023-03-20T18:41:02;11.30;;;8.60;;
8885;SDS011;4479;51.162;13.906;2023-03-20T18:51:06;11.00;;;7.63;;
8885;SDS011;4479;51.162;13.906;2023-03-20T19:01:09;9.50;;;6.73;;
8885;SDS011;4479;51.162;13.906;2023-03-20T19:11:13;9.67;;;6.80;;
8885;SDS011;4479;51.162;13.906;2023-03-20T19:21:19;8.53;;;6.20;;
8885;SDS011;4479;51.162;13.906;2023-03-20T19:31:26;6.67;;;5.30;;
8885;SDS011;4479;51.162;13.906;2023-03-20T19:41:29;30.50;;;23.33;;
8885;SDS011;4479;51.162;13.906;2023-03-20T19:51:32;9.83;;;7.87;;
8885;SDS011;4479;51.162;13.906;2023-03-20T20:01:35;9.53;;;7.77;;
8885;SDS011;4479;51.162;13.906;2023-03-20T20:11:38;12.80;;;9.10;;
8885;SDS011;4479;51.162;13.906;2023-03-20T20:21:41;19.50;;;16.57;;
8885;SDS011;4479;51.162;13.906;2023-03-20T20:31:49;11.47;;;8.97;;
8885;SDS011;4479;51.162;13.906;2023-03-20T20:41:53;10.00;;;8.37;;
8885;SDS011;4479;51.162;13.906;2023-03-20T20:51:57;23.13;;;19.60;;
8885;SDS011;4479;51.162;13.906;2023-03-20T21:01:59;10.10;;;7.90;;
8885;SDS011;4479;51.162;13.906;2023-03-20T21:12:04;8.63;;;7.10;;
8885;SDS011;4479;51.162;13.906;2023-03-20T21:22:07;9.33;;;7.63;;
8885;SDS011;4479;51.162;13.906;2023-03-20T21:32:13;8.83;;;6.50;;
8885;SDS011;4479;51.162;13.906;2023-03-20T21:42:19;21.47;;;15.43;;
8885;SDS011;4479;51.162;13.906;2023-03-20T21:52:23;10.47;;;8.13;;
8885;SDS011;4479;51.162;13.906;2023-03-20T22:02:25;7.50;;;6.03;;
8885;SDS011;4479;51.162;13.906;2023-03-20T22:12:29;6.53;;;5.53;;
8885;SDS011;4479;51.162;13.906;2023-03-20T22:22:32;7.37;;;5.50;;
8885;SDS011;4479;51.162;13.906;2023-03-20T22:32:35;7.27;;;5.97;;
8885;SDS011;4479;51.162;13.906;2023-03-20T22:42:39;8.30;;;6.27;;
8885;SDS011;4479;51.162;13.906;2023-03-20T22:52:50;8.10;;;5.97;;
8885;SDS011;4479;51.162;13.906;2023-03-20T23:03:04;9.97;;;6.57;;
8885;SDS011;4479;51.162;13.906;2023-03-20T23:13:08;8.23;;;5.93;;
8885;SDS011;4479;51.162;13.906;2023-03-20T23:23:11;8.03;;;5.93;;
8885;SDS011;4479;51.162;13.906;2023-03-20T23:33:15;7.70;;;5.90;;
8885;SDS011;4479;51.162;13.906;2023-03-20T23:43:18;8.80;;;6.33;;
8885;SDS011;4479;51.162;13.906;2023-03-20T23:53:22;8.63;;;5.77;;
